sensor_id;sensor_type;location;lat;lon;timestamp;temperature;humidity
12769;DHT22;6448;48.916;8.990;2024-03-08T00:01:12;10.70;54.60
12769;DHT22;6448;48.916;8.990;2024-03-08T00:02:13;10.70;54.60
12769;DHT22;6448;48.916;8.990;2024-03-08T00:03:14;10.60;54.50
12769;DHT22;6448;48.916;8.990;2024-03-08T00:04:15;10.60;54.50
12769;DHT22;6448;48.916;8.990;2024-03-08T00:05:17;10.60;54.60
12769;DHT22;6448;48.916;8.990;2024-03-08T00:06:18;10.60;54.60
12769;DHT22;6448;48.916;8.990;2024-03-08T00:07:20;10.60;54.70
12769;DHT22;6448;48.916;8.990;2024-03-08T00:08:21;10.60;54.60
12769;DHT22;6448;48.916;8.990;2024-03-08T00:09:24;10.60;54.70
12769;DHT22;6448;48.916;8.990;2024-03-08T00:10:27;10.50;54.60
12769;DHT22;6448;48.916;8.990;2024-03-08T00:11:30;10.50;54.60
12769;DHT22;6448;48.916;8.990;2024-03-08T00:12:33;10.50;54.60
12769;DHT22;6448;48.916;8.990;2024-03-08T00:13:34;10.50;54.60
12769;DHT22;6448;48.916;8.990;2024-03-08T00:14:35;10.50;54.60
12769;DHT22;6448;48.916;8.990;2024-03-08T00:15:38;10.50;54.70
12769;DHT22;6448;48.916;8.990;2024-03-08T00:16:39;10.50;54.80
12769;DHT22;6448;48.916;8.990;2024-03-08T00:17:45;10.50;54.80
12769;DHT22;6448;48.916;8.990;2024-03-08T00:18:46;10.50;54.80
12769;DHT22;6448;48.916;8.990;2024-03-08T00:19:49;10.40;54.80
12769;DHT22;6448;48.916;8.990;2024-03-08T00:20:50;10.50;54.70
12769;DHT22;6448;48.916;8.990;2024-03-08T00:21:53;10.40;54.80
12769;DHT22;6448;48.916;8.990;2024-03-08T00:22:53;10.40;54.80
12769;DHT22;6448;48.916;8.990;2024-03-08T00:23:58;10.40;54.80
12769;DHT22;6448;48.916;8.990;2024-03-08T00:25:00;10.40;54.80
12769;DHT22;6448;48.916;8.990;2024-03-08T00:26:02;10.40;54.80
12769;DHT22;6448;48.916;8.990;2024-03-08T00:27:04;10.40;54.80
12769;DHT22;6448;48.916;8.990;2024-03-08T00:28:06;10.40;54.90
12769;DHT22;6448;48.916;8.990;2024-03-08T00:29:08;10.40;54.90
12769;DHT22;6448;48.916;8.990;2024-03-08T00:30:09;10.40;54.80
12769;DHT22;6448;48.916;8.990;2024-03-08T00:31:13;10.30;54.80
12769;DHT22;6448;48.916;8.990;2024-03-08T00:32:14;10.30;54.90
12769;DHT22;6448;48.916;8.990;2024-03-08T00:33:17;10.30;55.00
12769;DHT22;6448;48.916;8.990;2024-03-08T00:34:18;10.30;54.90
12769;DHT22;6448;48.916;8.990;2024-03-08T00:35:20;10.30;54.90
12769;DHT22;6448;48.916;8.990;2024-03-08T00:36:20;10.30;55.50
12769;DHT22;6448;48.916;8.990;2024-03-08T00:37:22;10.50;55.00
12769;DHT22;6448;48.916;8.990;2024-03-08T00:38:23;10.30;54.90
12769;DHT22;6448;48.916;8.990;2024-03-08T00:39:25;10.30;54.90
12769;DHT22;6448;48.916;8.990;2024-03-08T00:40:27;10.30;55.00
12769;DHT22;6448;48.916;8.990;2024-03-08T00:41:30;10.30;55.00
12769;DHT22;6448;48.916;8.990;2024-03-08T00:42:30;10.30;55.00
12769;DHT22;6448;48.916;8.990;2024-03-08T00:43:33;10.30;55.00
12769;DHT22;6448;48.916;8.990;2024-03-08T00:44:34;10.20;54.80
12769;DHT22;6448;48.916;8.990;2024-03-08T00:45:36;10.20;54.80
12769;DHT22;6448;48.916;8.990;2024-03-08T00:46:37;10.20;54.80
12769;DHT22;6448;48.916;8.990;2024-03-08T00:47:39;10.20;54.80
12769;DHT22;6448;48.916;8.990;2024-03-08T00:48:40;10.20;55.30
12769;DHT22;6448;48.916;8.990;2024-03-08T00:49:43;10.20;54.70
12769;DHT22;6448;48.916;8.990;2024-03-08T00:50:44;10.20;54.70
12769;DHT22;6448;48.916;8.990;2024-03-08T00:51:46;10.10;54.60
12769;DHT22;6448;48.916;8.990;2024-03-08T00:52:47;10.10;54.60
12769;DHT22;6448;48.916;8.990;2024-03-08T00:53:49;10.10;54.70
12769;DHT22;6448;48.916;8.990;2024-03-08T00:54:50;10.10;54.70
12769;DHT22;6448;48.916;8.990;2024-03-08T00:55:53;10.10;54.80
12769;DHT22;6448;48.916;8.990;2024-03-08T00:56:55;10.10;54.90
12769;DHT22;6448;48.916;8.990;2024-03-08T00:57:57;10.00;54.80
12769;DHT22;6448;48.916;8.990;2024-03-08T00:58:57;10.00;54.70
12769;DHT22;6448;48.916;8.990;2024-03-08T01:00:00;10.00;54.80
12769;DHT22;6448;48.916;8.990;2024-03-08T01:01:00;10.00;54.70
12769;DHT22;6448;48.916;8.990;2024-03-08T01:02:02;10.00;54.80
12769;DHT22;6448;48.916;8.990;2024-03-08T01:03:04;10.00;54.70
12769;DHT22;6448;48.916;8.990;2024-03-08T01:04:05;10.00;54.70
12769;DHT22;6448;48.916;8.990;2024-03-08T01:05:07;10.00;54.70
12769;DHT22;6448;48.916;8.990;2024-03-08T01:06:09;10.00;54.70
12769;DHT22;6448;48.916;8.990;2024-03-08T01:07:09;9.90;54.60
12769;DHT22;6448;48.916;8.990;2024-03-08T01:08:11;9.90;54.60
12769;DHT22;6448;48.916;8.990;2024-03-08T01:09:12;9.90;54.70
12769;DHT22;6448;48.916;8.990;2024-03-08T01:10:13;9.90;54.80
12769;DHT22;6448;48.916;8.990;2024-03-08T01:11:16;9.90;54.70
12769;DHT22;6448;48.916;8.990;2024-03-08T01:12:17;9.80;54.70
12769;DHT22;6448;48.916;8.990;2024-03-08T01:13:18;9.80;54.70
12769;DHT22;6448;48.916;8.990;2024-03-08T01:14:20;9.80;54.70
12769;DHT22;6448;48.916;8.990;2024-03-08T01:15:23;9.80;55.30
12769;DHT22;6448;48.916;8.990;2024-03-08T01:16:24;9.80;54.80
12769;DHT22;6448;48.916;8.990;2024-03-08T01:17:25;9.80;54.80
12769;DHT22;6448;48.916;8.990;2024-03-08T01:18:27;9.80;54.90
12769;DHT22;6448;48.916;8.990;2024-03-08T01:19:28;9.70;54.90
12769;DHT22;6448;48.916;8.990;2024-03-08T01:20:32;9.70;55.50
12769;DHT22;6448;48.916;8.990;2024-03-08T01:21:33;9.70;54.90
12769;DHT22;6448;48.916;8.990;2024-03-08T01:22:35;9.70;55.00
12769;DHT22;6448;48.916;8.990;2024-03-08T01:23:36;9.70;55.00
12769;DHT22;6448;48.916;8.990;2024-03-08T01:24:38;9.70;55.10
12769;DHT22;6448;48.916;8.990;2024-03-08T01:25:39;9.70;55.10
12769;DHT22;6448;48.916;8.990;2024-03-08T01:26:43;9.70;55.00
12769;DHT22;6448;48.916;8.990;2024-03-08T01:27:43;9.60;55.00
12769;DHT22;6448;48.916;8.990;2024-03-08T01:28:45;9.60;55.10
12769;DHT22;6448;48.916;8.990;2024-03-08T01:29:46;9.60;55.10
12769;DHT22;6448;48.916;8.990;2024-03-08T01:30:48;9.60;55.10
12769;DHT22;6448;48.916;8.990;2024-03-08T01:31:50;9.60;55.10
12769;DHT22;6448;48.916;8.990;2024-03-08T01:32:52;9.60;55.10
12769;DHT22;6448;48.916;8.990;2024-03-08T01:33:54;9.60;55.10
12769;DHT22;6448;48.916;8.990;2024-03-08T01:34:56;9.60;55.10
12769;DHT22;6448;48.916;8.990;2024-03-08T01:35:57;9.60;55.10
12769;DHT22;6448;48.916;8.990;2024-03-08T01:36:59;9.50;55.10
12769;DHT22;6448;48.916;8.990;2024-03-08T01:38:01;9.50;55.00
12769;DHT22;6448;48.916;8.990;2024-03-08T01:39:05;9.50;55.00
12769;DHT22;6448;48.916;8.990;2024-03-08T01:40:08;9.50;55.00
12769;DHT22;6448;48.916;8.990;2024-03-08T01:41:10;9.50;55.00
12769;DHT22;6448;48.916;8.990;2024-03-08T01:42:15;9.50;55.10
12769;DHT22;6448;48.916;8.990;2024-03-08T01:43:19;9.50;55.10
12769;DHT22;6448;48.916;8.990;2024-03-08T01:44:20;9.50;55.20
12769;DHT22;6448;48.916;8.990;2024-03-08T01:45:21;9.50;55.20
12769;DHT22;6448;48.916;8.990;2024-03-08T01:46:23;9.40;55.10
12769;DHT22;6448;48.916;8.990;2024-03-08T01:47:25;9.40;55.10
12769;DHT22;6448;48.916;8.990;2024-03-08T01:48:26;9.40;55.10
12769;DHT22;6448;48.916;8.990;2024-03-08T01:49:29;9.40;55.40
12769;DHT22;6448;48.916;8.990;2024-03-08T01:50:30;9.60;55.20
12769;DHT22;6448;48.916;8.990;2024-03-08T01:51:32;9.40;55.20
12769;DHT22;6448;48.916;8.990;2024-03-08T01:52:34;9.40;55.10
12769;DHT22;6448;48.916;8.990;2024-03-08T01:53:36;9.40;55.10
12769;DHT22;6448;48.916;8.990;2024-03-08T01:54:37;9.30;55.10
12769;DHT22;6448;48.916;8.990;2024-03-08T01:55:42;9.30;55.10
12769;DHT22;6448;48.916;8.990;2024-03-08T01:56:44;9.30;55.20
12769;DHT22;6448;48.916;8.990;2024-03-08T01:57:47;9.30;55.30
12769;DHT22;6448;48.916;8.990;2024-03-08T01:58:49;9.30;55.30
12769;DHT22;6448;48.916;8.990;2024-03-08T01:59:51;9.30;55.40
12769;DHT22;6448;48.916;8.990;2024-03-08T02:00:56;9.30;55.40
12769;DHT22;6448;48.916;8.990;2024-03-08T02:02:01;9.30;55.50
12769;DHT22;6448;48.916;8.990;2024-03-08T02:03:02;9.30;55.60
12769;DHT22;6448;48.916;8.990;2024-03-08T02:04:04;9.30;55.50
12769;DHT22;6448;48.916;8.990;2024-03-08T02:05:06;9.20;55.40
12769;DHT22;6448;48.916;8.990;2024-03-08T02:06:08;9.20;55.30
12769;DHT22;6448;48.916;8.990;2024-03-08T02:07:10;9.20;55.30
12769;DHT22;6448;48.916;8.990;2024-03-08T02:08:12;9.20;55.40
12769;DHT22;6448;48.916;8.990;2024-03-08T02:09:14;9.20;55.50
12769;DHT22;6448;48.916;8.990;2024-03-08T02:10:17;9.20;55.50
12769;DHT22;6448;48.916;8.990;2024-03-08T02:11:18;9.20;55.60
12769;DHT22;6448;48.916;8.990;2024-03-08T02:12:21;9.20;55.60
12769;DHT22;6448;48.916;8.990;2024-03-08T02:13:23;9.10;55.70
12769;DHT22;6448;48.916;8.990;2024-03-08T02:14:25;9.20;55.80
12769;DHT22;6448;48.916;8.990;2024-03-08T02:15:25;9.10;55.80
12769;DHT22;6448;48.916;8.990;2024-03-08T02:16:28;9.10;55.90
12769;DHT22;6448;48.916;8.990;2024-03-08T02:17:28;9.20;55.90
12769;DHT22;6448;48.916;8.990;2024-03-08T02:18:31;9.10;55.90
12769;DHT22;6448;48.916;8.990;2024-03-08T02:19:32;9.10;55.90
12769;DHT22;6448;48.916;8.990;2024-03-08T02:20:37;9.10;56.00
12769;DHT22;6448;48.916;8.990;2024-03-08T02:21:38;9.10;55.90
12769;DHT22;6448;48.916;8.990;2024-03-08T02:22:40;9.10;56.00
12769;DHT22;6448;48.916;8.990;2024-03-08T02:23:41;9.10;56.00
12769;DHT22;6448;48.916;8.990;2024-03-08T02:24:43;9.10;56.00
12769;DHT22;6448;48.916;8.990;2024-03-08T02:25:44;9.10;56.00
12769;DHT22;6448;48.916;8.990;2024-03-08T02:26:45;9.10;56.00
12769;DHT22;6448;48.916;8.990;2024-03-08T02:27:46;9.10;55.90
12769;DHT22;6448;48.916;8.990;2024-03-08T02:28:48;9.10;55.90
12769;DHT22;6448;48.916;8.990;2024-03-08T02:29:49;9.10;55.90
12769;DHT22;6448;48.916;8.990;2024-03-08T02:30:52;9.10;55.80
12769;DHT22;6448;48.916;8.990;2024-03-08T02:31:55;9.10;55.90
12769;DHT22;6448;48.916;8.990;2024-03-08T02:32:57;9.10;55.90
12769;DHT22;6448;48.916;8.990;2024-03-08T02:33:59;9.10;55.90
12769;DHT22;6448;48.916;8.990;2024-03-08T02:35:01;9.10;55.90
12769;DHT22;6448;48.916;8.990;2024-03-08T02:36:03;9.10;55.90
12769;DHT22;6448;48.916;8.990;2024-03-08T02:37:06;9.10;56.00
12769;DHT22;6448;48.916;8.990;2024-03-08T02:38:09;9.00;55.90
12769;DHT22;6448;48.916;8.990;2024-03-08T02:39:10;9.00;56.00
12769;DHT22;6448;48.916;8.990;2024-03-08T02:40:12;9.00;55.90
12769;DHT22;6448;48.916;8.990;2024-03-08T02:41:13;9.00;56.00
12769;DHT22;6448;48.916;8.990;2024-03-08T02:42:14;9.00;56.00
12769;DHT22;6448;48.916;8.990;2024-03-08T02:43:17;9.00;56.00
12769;DHT22;6448;48.916;8.990;2024-03-08T02:44:18;9.00;56.00
12769;DHT22;6448;48.916;8.990;2024-03-08T02:45:22;9.00;56.00
12769;DHT22;6448;48.916;8.990;2024-03-08T02:46:22;9.00;56.00
12769;DHT22;6448;48.916;8.990;2024-03-08T02:47:24;9.00;56.00
12769;DHT22;6448;48.916;8.990;2024-03-08T02:48:26;9.00;56.10
12769;DHT22;6448;48.916;8.990;2024-03-08T02:49:27;9.00;56.10
12769;DHT22;6448;48.916;8.990;2024-03-08T02:50:29;9.00;56.20
12769;DHT22;6448;48.916;8.990;2024-03-08T02:51:31;9.00;56.20
12769;DHT22;6448;48.916;8.990;2024-03-08T02:52:35;9.00;56.20
12769;DHT22;6448;48.916;8.990;2024-03-08T02:53:36;9.00;56.10
12769;DHT22;6448;48.916;8.990;2024-03-08T02:54:38;9.00;56.10
12769;DHT22;6448;48.916;8.990;2024-03-08T02:55:39;9.00;56.00
12769;DHT22;6448;48.916;8.990;2024-03-08T02:56:41;9.00;56.10
12769;DHT22;6448;48.916;8.990;2024-03-08T02:57:42;8.90;56.10
12769;DHT22;6448;48.916;8.990;2024-03-08T02:58:44;8.90;56.00
12769;DHT22;6448;48.916;8.990;2024-03-08T02:59:48;8.90;56.10
12769;DHT22;6448;48.916;8.990;2024-03-08T03:00:50;8.90;56.00
12769;DHT22;6448;48.916;8.990;2024-03-08T03:01:51;8.90;56.10
12769;DHT22;6448;48.916;8.990;2024-03-08T03:02:53;8.90;56.20
12769;DHT22;6448;48.916;8.990;2024-03-08T03:03:54;8.90;56.20
12769;DHT22;6448;48.916;8.990;2024-03-08T03:04:56;8.90;56.20
12769;DHT22;6448;48.916;8.990;2024-03-08T03:05:57;8.90;56.20
12769;DHT22;6448;48.916;8.990;2024-03-08T03:07:00;8.90;56.10
12769;DHT22;6448;48.916;8.990;2024-03-08T03:08:01;8.90;56.10
12769;DHT22;6448;48.916;8.990;2024-03-08T03:09:04;8.90;56.00
12769;DHT22;6448;48.916;8.990;2024-03-08T03:10:07;8.90;56.10
12769;DHT22;6448;48.916;8.990;2024-03-08T03:11:09;8.90;56.10
12769;DHT22;6448;48.916;8.990;2024-03-08T03:12:10;8.90;56.10
12769;DHT22;6448;48.916;8.990;2024-03-08T03:13:12;8.90;56.10
12769;DHT22;6448;48.916;8.990;2024-03-08T03:14:14;8.90;56.10
12769;DHT22;6448;48.916;8.990;2024-03-08T03:15:16;8.80;56.10
12769;DHT22;6448;48.916;8.990;2024-03-08T03:16:17;8.90;56.10
12769;DHT22;6448;48.916;8.990;2024-03-08T03:17:20;8.80;56.10
12769;DHT22;6448;48.916;8.990;2024-03-08T03:18:21;8.80;56.10
12769;DHT22;6448;48.916;8.990;2024-03-08T03:19:24;8.80;56.10
12769;DHT22;6448;48.916;8.990;2024-03-08T03:20:25;8.80;56.20
12769;DHT22;6448;48.916;8.990;2024-03-08T03:21:28;8.80;56.20
12769;DHT22;6448;48.916;8.990;2024-03-08T03:22:33;8.80;56.20
12769;DHT22;6448;48.916;8.990;2024-03-08T03:23:35;8.80;56.20
12769;DHT22;6448;48.916;8.990;2024-03-08T03:24:37;9.00;56.30
12769;DHT22;6448;48.916;8.990;2024-03-08T03:25:38;8.80;56.20
12769;DHT22;6448;48.916;8.990;2024-03-08T03:26:42;8.80;56.20
12769;DHT22;6448;48.916;8.990;2024-03-08T03:27:44;8.80;56.20
12769;DHT22;6448;48.916;8.990;2024-03-08T03:28:46;8.80;56.20
12769;DHT22;6448;48.916;8.990;2024-03-08T03:29:48;8.80;56.20
12769;DHT22;6448;48.916;8.990;2024-03-08T03:30:51;8.80;56.20
12769;DHT22;6448;48.916;8.990;2024-03-08T03:31:53;8.80;56.20
12769;DHT22;6448;48.916;8.990;2024-03-08T03:32:55;8.80;56.20
12769;DHT22;6448;48.916;8.990;2024-03-08T03:33:57;8.80;56.20
12769;DHT22;6448;48.916;8.990;2024-03-08T03:35:02;8.80;56.10
12769;DHT22;6448;48.916;8.990;2024-03-08T03:36:06;8.70;56.10
12769;DHT22;6448;48.916;8.990;2024-03-08T03:37:09;8.70;56.20
12769;DHT22;6448;48.916;8.990;2024-03-08T03:38:14;8.80;56.20
12769;DHT22;6448;48.916;8.990;2024-03-08T03:39:15;8.70;56.20
12769;DHT22;6448;48.916;8.990;2024-03-08T03:40:20;8.70;56.20
12769;DHT22;6448;48.916;8.990;2024-03-08T03:41:21;8.70;56.20
12769;DHT22;6448;48.916;8.990;2024-03-08T03:42:22;8.70;56.20
12769;DHT22;6448;48.916;8.990;2024-03-08T03:43:24;8.70;56.20
12769;DHT22;6448;48.916;8.990;2024-03-08T03:44:26;8.70;56.30
12769;DHT22;6448;48.916;8.990;2024-03-08T03:45:27;8.70;56.30
12769;DHT22;6448;48.916;8.990;2024-03-08T03:46:29;8.70;56.30
12769;DHT22;6448;48.916;8.990;2024-03-08T03:47:29;8.70;56.20
12769;DHT22;6448;48.916;8.990;2024-03-08T03:48:30;8.70;56.20
12769;DHT22;6448;48.916;8.990;2024-03-08T03:49:32;8.70;56.30
12769;DHT22;6448;48.916;8.990;2024-03-08T03:50:34;8.70;56.30
12769;DHT22;6448;48.916;8.990;2024-03-08T03:51:36;8.70;56.30
12769;DHT22;6448;48.916;8.990;2024-03-08T03:52:37;8.70;56.30
12769;DHT22;6448;48.916;8.990;2024-03-08T03:53:40;8.60;56.20
12769;DHT22;6448;48.916;8.990;2024-03-08T03:54:40;8.60;56.20
12769;DHT22;6448;48.916;8.990;2024-03-08T03:55:42;8.60;56.20
12769;DHT22;6448;48.916;8.990;2024-03-08T03:56:43;8.60;56.20
12769;DHT22;6448;48.916;8.990;2024-03-08T03:57:45;8.60;56.30
12769;DHT22;6448;48.916;8.990;2024-03-08T03:58:46;8.60;56.20
12769;DHT22;6448;48.916;8.990;2024-03-08T03:59:48;8.60;56.20
12769;DHT22;6448;48.916;8.990;2024-03-08T04:00:48;8.60;56.20
12769;DHT22;6448;48.916;8.990;2024-03-08T04:01:50;8.60;56.20
12769;DHT22;6448;48.916;8.990;2024-03-08T04:02:51;8.60;56.20
12769;DHT22;6448;48.916;8.990;2024-03-08T04:03:53;8.60;56.10
12769;DHT22;6448;48.916;8.990;2024-03-08T04:04:53;8.60;56.20
12769;DHT22;6448;48.916;8.990;2024-03-08T04:05:56;8.60;56.20
12769;DHT22;6448;48.916;8.990;2024-03-08T04:06:56;8.60;56.20
12769;DHT22;6448;48.916;8.990;2024-03-08T04:07:58;8.60;56.20
12769;DHT22;6448;48.916;8.990;2024-03-08T04:09:00;8.50;56.20
12769;DHT22;6448;48.916;8.990;2024-03-08T04:10:02;8.50;56.20
12769;DHT22;6448;48.916;8.990;2024-03-08T04:11:04;8.60;56.30
12769;DHT22;6448;48.916;8.990;2024-03-08T04:12:06;8.50;56.20
12769;DHT22;6448;48.916;8.990;2024-03-08T04:13:07;8.50;56.30
12769;DHT22;6448;48.916;8.990;2024-03-08T04:14:09;8.50;56.90
12769;DHT22;6448;48.916;8.990;2024-03-08T04:15:11;8.50;56.30
12769;DHT22;6448;48.916;8.990;2024-03-08T04:16:12;8.50;56.30
12769;DHT22;6448;48.916;8.990;2024-03-08T04:17:14;8.50;56.30
12769;DHT22;6448;48.916;8.990;2024-03-08T04:18:15;8.50;56.30
12769;DHT22;6448;48.916;8.990;2024-03-08T04:19:16;8.50;56.20
12769;DHT22;6448;48.916;8.990;2024-03-08T04:20:17;8.50;56.20
12769;DHT22;6448;48.916;8.990;2024-03-08T04:21:19;8.50;56.20
12769;DHT22;6448;48.916;8.990;2024-03-08T04:22:20;8.50;56.10
12769;DHT22;6448;48.916;8.990;2024-03-08T04:23:22;8.50;56.10
12769;DHT22;6448;48.916;8.990;2024-03-08T04:24:25;8.50;56.10
12769;DHT22;6448;48.916;8.990;2024-03-08T04:25:25;8.50;56.10
12769;DHT22;6448;48.916;8.990;2024-03-08T04:26:27;8.40;56.10
12769;DHT22;6448;48.916;8.990;2024-03-08T04:27:28;8.40;56.00
12769;DHT22;6448;48.916;8.990;2024-03-08T04:28:30;8.50;56.10
12769;DHT22;6448;48.916;8.990;2024-03-08T04:29:31;8.40;56.10
12769;DHT22;6448;48.916;8.990;2024-03-08T04:30:33;8.40;56.10
12769;DHT22;6448;48.916;8.990;2024-03-08T04:31:37;8.40;56.20
12769;DHT22;6448;48.916;8.990;2024-03-08T04:32:38;8.40;56.20
12769;DHT22;6448;48.916;8.990;2024-03-08T04:33:41;8.40;56.90
12769;DHT22;6448;48.916;8.990;2024-03-08T04:34:42;8.40;56.30
12769;DHT22;6448;48.916;8.990;2024-03-08T04:35:45;8.40;56.30
12769;DHT22;6448;48.916;8.990;2024-03-08T04:36:46;8.40;56.30
12769;DHT22;6448;48.916;8.990;2024-03-08T04:37:48;8.40;56.30
12769;DHT22;6448;48.916;8.990;2024-03-08T04:38:52;8.40;56.30
12769;DHT22;6448;48.916;8.990;2024-03-08T04:39:54;8.40;56.20
12769;DHT22;6448;48.916;8.990;2024-03-08T04:40:56;8.40;56.30
12769;DHT22;6448;48.916;8.990;2024-03-08T04:41:59;8.40;56.20
12769;DHT22;6448;48.916;8.990;2024-03-08T04:43:04;8.40;56.20
12769;DHT22;6448;48.916;8.990;2024-03-08T04:44:04;8.40;56.20
12769;DHT22;6448;48.916;8.990;2024-03-08T04:45:09;8.30;56.20
12769;DHT22;6448;48.916;8.990;2024-03-08T04:46:11;8.30;56.30
12769;DHT22;6448;48.916;8.990;2024-03-08T04:47:13;8.30;56.30
12769;DHT22;6448;48.916;8.990;2024-03-08T04:48:14;8.30;56.30
12769;DHT22;6448;48.916;8.990;2024-03-08T04:49:16;8.30;56.20
12769;DHT22;6448;48.916;8.990;2024-03-08T04:50:17;8.30;56.30
12769;DHT22;6448;48.916;8.990;2024-03-08T04:51:19;8.30;56.30
12769;DHT22;6448;48.916;8.990;2024-03-08T04:52:20;8.30;56.30
12769;DHT22;6448;48.916;8.990;2024-03-08T04:53:22;8.30;56.30
12769;DHT22;6448;48.916;8.990;2024-03-08T04:54:23;8.30;56.40
12769;DHT22;6448;48.916;8.990;2024-03-08T04:55:26;8.30;56.40
12769;DHT22;6448;48.916;8.990;2024-03-08T04:56:27;8.30;56.40
12769;DHT22;6448;48.916;8.990;2024-03-08T04:57:29;8.30;56.40
12769;DHT22;6448;48.916;8.990;2024-03-08T04:58:29;8.30;56.40
12769;DHT22;6448;48.916;8.990;2024-03-08T04:59:31;8.30;56.40
12769;DHT22;6448;48.916;8.990;2024-03-08T05:00:32;8.30;56.40
12769;DHT22;6448;48.916;8.990;2024-03-08T05:01:33;8.30;56.30
12769;DHT22;6448;48.916;8.990;2024-03-08T05:02:37;8.30;56.30
12769;DHT22;6448;48.916;8.990;2024-03-08T05:03:39;8.30;56.40
12769;DHT22;6448;48.916;8.990;2024-03-08T05:04:40;8.30;56.30
12769;DHT22;6448;48.916;8.990;2024-03-08T05:05:42;8.20;56.40
12769;DHT22;6448;48.916;8.990;2024-03-08T05:06:44;8.20;56.30
12769;DHT22;6448;48.916;8.990;2024-03-08T05:07:45;8.20;56.40
12769;DHT22;6448;48.916;8.990;2024-03-08T05:08:47;8.20;56.40
12769;DHT22;6448;48.916;8.990;2024-03-08T05:09:47;8.20;56.30
12769;DHT22;6448;48.916;8.990;2024-03-08T05:10:53;8.20;56.30
12769;DHT22;6448;48.916;8.990;2024-03-08T05:11:54;8.20;56.30
12769;DHT22;6448;48.916;8.990;2024-03-08T05:12:57;8.20;56.30
12769;DHT22;6448;48.916;8.990;2024-03-08T05:13:57;8.20;56.30
12769;DHT22;6448;48.916;8.990;2024-03-08T05:15:00;8.20;56.40
12769;DHT22;6448;48.916;8.990;2024-03-08T05:16:01;8.20;56.40
12769;DHT22;6448;48.916;8.990;2024-03-08T05:17:03;8.20;56.40
12769;DHT22;6448;48.916;8.990;2024-03-08T05:18:07;8.20;56.40
12769;DHT22;6448;48.916;8.990;2024-03-08T05:19:11;8.20;56.40
12769;DHT22;6448;48.916;8.990;2024-03-08T05:20:12;8.20;56.40
12769;DHT22;6448;48.916;8.990;2024-03-08T05:21:14;8.20;56.40
12769;DHT22;6448;48.916;8.990;2024-03-08T05:22:17;8.20;56.40
12769;DHT22;6448;48.916;8.990;2024-03-08T05:23:19;8.20;56.40
12769;DHT22;6448;48.916;8.990;2024-03-08T05:24:20;8.10;56.40
12769;DHT22;6448;48.916;8.990;2024-03-08T05:25:22;8.10;56.40
12769;DHT22;6448;48.916;8.990;2024-03-08T05:26:24;8.10;56.50
12769;DHT22;6448;48.916;8.990;2024-03-08T05:27:25;8.10;56.50
12769;DHT22;6448;48.916;8.990;2024-03-08T05:28:26;8.10;56.50
12769;DHT22;6448;48.916;8.990;2024-03-08T05:29:27;8.10;56.50
12769;DHT22;6448;48.916;8.990;2024-03-08T05:30:29;8.10;56.60
12769;DHT22;6448;48.916;8.990;2024-03-08T05:31:31;8.10;56.50
12769;DHT22;6448;48.916;8.990;2024-03-08T05:32:37;8.10;56.60
12769;DHT22;6448;48.916;8.990;2024-03-08T05:33:37;8.10;56.50
12769;DHT22;6448;48.916;8.990;2024-03-08T05:34:39;8.10;56.50
12769;DHT22;6448;48.916;8.990;2024-03-08T05:35:40;8.10;56.50
12769;DHT22;6448;48.916;8.990;2024-03-08T05:36:41;8.10;56.50
12769;DHT22;6448;48.916;8.990;2024-03-08T05:37:44;8.10;56.60
12769;DHT22;6448;48.916;8.990;2024-03-08T05:38:45;8.10;56.60
12769;DHT22;6448;48.916;8.990;2024-03-08T05:39:46;8.10;56.60
12769;DHT22;6448;48.916;8.990;2024-03-08T05:40:48;8.10;56.60
12769;DHT22;6448;48.916;8.990;2024-03-08T05:41:50;8.10;56.50
12769;DHT22;6448;48.916;8.990;2024-03-08T05:42:51;8.10;56.50
12769;DHT22;6448;48.916;8.990;2024-03-08T05:43:52;8.10;56.60
12769;DHT22;6448;48.916;8.990;2024-03-08T05:44:54;8.10;56.60
12769;DHT22;6448;48.916;8.990;2024-03-08T05:45:57;8.10;56.70
12769;DHT22;6448;48.916;8.990;2024-03-08T05:46:59;8.10;56.60
12769;DHT22;6448;48.916;8.990;2024-03-08T05:48:00;8.10;56.50
12769;DHT22;6448;48.916;8.990;2024-03-08T05:49:02;8.10;56.60
12769;DHT22;6448;48.916;8.990;2024-03-08T05:50:06;8.00;56.60
12769;DHT22;6448;48.916;8.990;2024-03-08T05:51:08;8.00;56.50
12769;DHT22;6448;48.916;8.990;2024-03-08T05:52:10;8.30;56.60
12769;DHT22;6448;48.916;8.990;2024-03-08T05:53:11;8.00;56.50
12769;DHT22;6448;48.916;8.990;2024-03-08T05:54:12;8.00;56.50
12769;DHT22;6448;48.916;8.990;2024-03-08T05:55:14;8.00;56.50
12769;DHT22;6448;48.916;8.990;2024-03-08T05:56:15;8.00;56.40
12769;DHT22;6448;48.916;8.990;2024-03-08T05:57:18;8.00;56.40
12769;DHT22;6448;48.916;8.990;2024-03-08T05:58:19;8.00;56.40
12769;DHT22;6448;48.916;8.990;2024-03-08T05:59:21;8.00;56.50
12769;DHT22;6448;48.916;8.990;2024-03-08T06:00:23;8.00;56.40
12769;DHT22;6448;48.916;8.990;2024-03-08T06:01:27;8.00;56.40
12769;DHT22;6448;48.916;8.990;2024-03-08T06:02:27;8.00;56.40
12769;DHT22;6448;48.916;8.990;2024-03-08T06:03:28;8.00;56.40
12769;DHT22;6448;48.916;8.990;2024-03-08T06:04:30;8.00;56.40
12769;DHT22;6448;48.916;8.990;2024-03-08T06:05:31;8.00;56.40
12769;DHT22;6448;48.916;8.990;2024-03-08T06:06:33;8.00;56.40
12769;DHT22;6448;48.916;8.990;2024-03-08T06:07:34;7.90;56.40
12769;DHT22;6448;48.916;8.990;2024-03-08T06:08:35;7.90;56.40
12769;DHT22;6448;48.916;8.990;2024-03-08T06:09:36;7.90;56.40
12769;DHT22;6448;48.916;8.990;2024-03-08T06:10:37;7.90;56.40
12769;DHT22;6448;48.916;8.990;2024-03-08T06:11:39;7.90;56.40
12769;DHT22;6448;48.916;8.990;2024-03-08T06:12:41;7.90;56.50
12769;DHT22;6448;48.916;8.990;2024-03-08T06:13:43;7.90;56.50
12769;DHT22;6448;48.916;8.990;2024-03-08T06:14:44;7.90;56.50
12769;DHT22;6448;48.916;8.990;2024-03-08T06:15:45;7.90;56.50
12769;DHT22;6448;48.916;8.990;2024-03-08T06:16:47;7.90;56.50
12769;DHT22;6448;48.916;8.990;2024-03-08T06:17:50;7.90;56.60
12769;DHT22;6448;48.916;8.990;2024-03-08T06:18:53;7.90;56.60
12769;DHT22;6448;48.916;8.990;2024-03-08T06:19:55;7.90;56.60
12769;DHT22;6448;48.916;8.990;2024-03-08T06:20:57;7.90;56.70
12769;DHT22;6448;48.916;8.990;2024-03-08T06:21:58;7.90;56.70
12769;DHT22;6448;48.916;8.990;2024-03-08T06:23:01;7.90;56.70
12769;DHT22;6448;48.916;8.990;2024-03-08T06:24:02;7.80;56.60
12769;DHT22;6448;48.916;8.990;2024-03-08T06:25:04;7.90;56.70
12769;DHT22;6448;48.916;8.990;2024-03-08T06:26:05;7.80;56.70
12769;DHT22;6448;48.916;8.990;2024-03-08T06:27:07;7.80;56.70
12769;DHT22;6448;48.916;8.990;2024-03-08T06:28:11;7.90;56.80
12769;DHT22;6448;48.916;8.990;2024-03-08T06:29:14;7.80;56.80
12769;DHT22;6448;48.916;8.990;2024-03-08T06:30:16;7.90;56.90
12769;DHT22;6448;48.916;8.990;2024-03-08T06:31:17;7.80;56.90
12769;DHT22;6448;48.916;8.990;2024-03-08T06:32:18;7.80;56.90
12769;DHT22;6448;48.916;8.990;2024-03-08T06:33:19;7.80;56.90
12769;DHT22;6448;48.916;8.990;2024-03-08T06:34:21;7.80;56.90
12769;DHT22;6448;48.916;8.990;2024-03-08T06:35:22;7.80;56.90
12769;DHT22;6448;48.916;8.990;2024-03-08T06:36:24;7.80;56.90
12769;DHT22;6448;48.916;8.990;2024-03-08T06:37:24;7.80;56.90
12769;DHT22;6448;48.916;8.990;2024-03-08T06:38:26;7.80;56.90
12769;DHT22;6448;48.916;8.990;2024-03-08T06:39:27;7.80;56.90
12769;DHT22;6448;48.916;8.990;2024-03-08T06:40:30;7.80;57.00
12769;DHT22;6448;48.916;8.990;2024-03-08T06:41:32;7.80;56.90
12769;DHT22;6448;48.916;8.990;2024-03-08T06:42:33;7.80;56.90
12769;DHT22;6448;48.916;8.990;2024-03-08T06:43:36;7.80;56.90